Latest Weather Observations for Mount Isa

IDQ60801

Issued at 7:32 am EST Thursday 17 August 2017 (issued every 30 minutes, with the page automatically refreshed every 10 minutes)

About weather observations | Map of weather stations | Latest weather observations for QLD | Other Formats
Station Details ID: 029127 Name: MOUNT ISA AERO Lat: -20.68 Lon: 139.49 Height: 340.3 m
Data from the previous 72 hours. | See also: Recent months at Mount Isa
Date/Time
EST
Temp
°C
App
Temp
°C
Dew
Point
°C
Rel
Hum
%
Delta-T
°C
Wind Press
QNH
hPa
Press
MSL
hPa
Rain since
9am
mm
Dir  Spd
km/h
Gust
km/h
Spd
kts
Gust
kts
17/07:30am 11.3 10.0 4.1 61 3.3 CALM 0 6 0 3 1015.8 1014.8 0.0
17/07:00am 10.7 9.3 3.7 62 3.1 CALM 0 0 0 0 1015.5 1014.5 0.0
17/06:30am 10.7 8.6 2.0 55 3.8 SSW 2 7 1 4 1015.1 1014.1 0.0
17/06:00am 11.2 9.7 2.8 56 3.7 CALM 0 0 0 0 1014.8 1013.8 0.0
17/05:30am 12.2 10.6 2.6 52 4.3 CALM 0 0 0 0 1014.2 1013.3 0.0
17/05:00am 13.7 12.0 2.0 45 5.2 CALM 0 0 0 0 1014.0 1013.0 0.0
17/04:30am 15.8 13.8 2.2 40 6.2 SSE 2 6 1 3 1013.8 1012.8 0.0
17/04:00am 17.9 14.7 3.0 37 7.0 SSE 9 11 5 6 1013.8 1012.8 0.0
17/03:30am 18.8 16.1 2.6 34 7.6 S 6 9 3 5 1013.8 1012.8 0.0
17/03:00am 17.2 13.4 1.6 35 7.1 SSE 11 13 6 7 1013.9 1012.9 0.0
17/02:30am 19.9 16.9 1.8 30 8.4 SSE 7 11 4 6 1014.0 1013.0 0.0
17/02:00am 21.0 18.0 1.8 28 9.0 SSE 7 9 4 5 1014.1 1013.2 0.0
17/01:30am 19.7 16.8 1.2 29 8.5 S 6 9 3 5 1014.3 1013.4 0.0
17/01:00am 21.1 17.5 0.9 26 9.3 SSE 9 11 5 6 1014.4 1013.5 0.0
17/12:30am 22.6 18.0 1.6 25 9.9 S 15 17 8 9 1014.5 1013.6 0.0
17/12:00am 20.7 18.4 0.5 26 9.2 S 2 9 1 5 1014.7 1013.7 0.0
 
Date/Time
EST
Temp
°C
App
Temp
°C
Dew
Point
°C
Rel
Hum
%
Delta-T
°C
Wind Press
QNH
hPa
Press
MSL
hPa
Rain since
9am
mm
Dir  Spd
km/h
Gust
km/h
Spd
kts
Gust
kts
16/11:30pm 22.3 18.4 1.3 25 9.9 SSE 11 15 6 8 1014.8 1013.8 0.0
16/11:00pm 23.0 18.4 1.4 24 10.2 SE 15 20 8 11 1014.7 1013.7 0.0
16/10:30pm 21.4 18.3 3.6 31 8.7 SSE 9 13 5 7 1014.1 1013.2 0.0
16/10:00pm 18.4 15.6 2.3 34 7.5 WSW 6 17 3 9 1013.8 1012.8 0.0
16/09:30pm 17.3 14.6 0.5 32 7.5 W 4 7 2 4 1013.4 1012.4 0.0
16/09:00pm 18.4 16.5 0.5 30 8.0 CALM 0 0 0 0 1013.2 1012.2 0.0
16/08:30pm 19.9 18.1 0.9 28 8.7 CALM 0 0 0 0 1012.9 1011.9 0.0
16/08:00pm 21.5 19.7 1.2 26 9.5 CALM 0 4 0 2 1012.6 1011.6 0.0
16/07:30pm 23.0 19.0 0.2 22 10.5 SW 11 13 6 7 1012.2 1011.2 0.0
16/07:00pm 25.7 21.8 1.1 20 11.8 SW 11 13 6 7 1011.9 1010.9 0.0
16/06:55pm 26.5 22.2 1.0 19 12.3 SW 13 15 7 8 1011.8 1010.8 0.0
16/06:35pm 28.7 24.8 1.3 17 13.5 SW 11 15 6 8 1011.7 1010.7 0.0
16/06:30pm 29.1 25.7 1.6 17 13.6 WSW 9 15 5 8 1011.6 1010.6 0.0
16/06:00pm 33.1 31.1 2.1 14 15.9 WNW 2 11 1 6 1011.1 1010.1 0.0
16/05:30pm 33.7 30.2 1.5 13 16.4 W 9 13 5 7 1011.0 1010.0 0.0
16/05:00pm 34.6 30.9 2.2 13 16.8 NW 11 15 6 8 1010.9 1009.9 0.0
16/04:30pm 35.0 31.7 2.5 13 17.0 WSW 9 15 5 8 1010.7 1009.7 0.0
16/04:00pm 34.7 31.4 2.3 13 16.8 NNW 9 15 5 8 1010.8 1009.8 0.0
16/03:30pm 34.2 30.0 1.9 13 16.6 WSW 13 20 7 11 1010.9 1009.9 0.0
16/03:00pm 34.0 29.4 1.7 13 16.6 WSW 15 24 8 13 1011.0 1010.0 0.0
16/02:30pm 34.3 31.1 3.0 14 16.4 W 9 19 5 10 1011.3 1010.3 0.0
16/02:00pm 33.8 29.4 2.6 14 16.2 W 15 22 8 12 1011.8 1010.8 0.0
16/01:30pm 33.2 28.9 3.1 15 15.7 NW 15 26 8 14 1012.2 1011.2 0.0
16/01:00pm 33.0 29.4 2.9 15 15.6 W 11 20 6 11 1012.9 1011.9 0.0
16/12:30pm 32.4 28.9 3.4 16 15.1 N 11 24 6 13 1013.3 1012.3 0.0
16/12:00pm 31.9 28.6 4.6 18 14.5 WNW 11 19 6 10 1013.8 1012.8 0.0
16/11:30am 31.6 27.8 5.9 20 13.9 W 15 22 8 12 1014.7 1013.7 0.0
16/11:00am 31.0 27.2 7.5 23 13.0 NW 17 24 9 13 1014.9 1013.9 0.0
16/10:30am 29.6 27.5 8.1 26 11.9 NW 9 17 5 9 1015.2 1014.2 0.0
16/10:00am 27.2 25.1 8.1 30 10.5 W 9 15 5 8 1015.5 1014.5 0.0
16/09:30am 25.3 23.5 7.9 33 9.4 WNW 7 11 4 6 1015.5 1014.5 0.0
16/09:00am 23.5 22.6 9.1 40 7.9 SW 4 7 2 4 1015.6 1014.6 0.0
16/08:30am 20.4 18.7 6.0 39 7.3 S 4 6 2 3 1015.7 1014.7 0.0
16/08:00am 16.6 13.9 5.6 48 5.4 S 9 11 5 6 1015.7 1014.7 0.0
16/07:55am 15.5 12.8 5.4 51 4.9 S 9 11 5 6 1015.6 1014.6 0.0
16/07:30am 10.4 7.1 2.7 59 3.4 SSE 9 11 5 6 1015.4 1014.4 0.0
16/07:00am 9.1 5.7 1.8 60 3.1 S 9 11 5 6 1015.1 1014.1 0.0
16/06:30am 9.2 6.4 1.9 60 3.1 SSE 6 7 3 4 1014.8 1013.8 0.0
16/06:00am 9.6 6.9 2.5 61 3.1 SE 6 7 3 4 1014.3 1013.4 0.0
16/05:30am 10.1 8.5 2.2 58 3.4 CALM 0 6 0 3 1014.0 1013.0 0.0
16/05:00am 9.8 6.0 1.5 56 3.5 WSW 11 19 6 10 1013.7 1012.7 0.0
16/04:30am 9.4 7.6 1.3 57 3.4 CALM 0 0 0 0 1013.2 1012.2 0.0
16/04:00am 9.7 7.9 1.1 55 3.6 CALM 0 0 0 0 1013.2 1012.2 0.0
16/03:30am 9.8 8.0 1.2 55 3.6 CALM 0 0 0 0 1013.4 1012.4 0.0
16/03:00am 10.3 8.5 1.4 54 3.8 CALM 0 0 0 0 1013.5 1012.5 0.0
16/02:30am 10.7 8.9 1.5 53 3.9 CALM 0 0 0 0 1013.7 1012.7 0.0
16/02:00am 11.0 9.2 1.0 50 4.2 CALM 0 0 0 0 1013.8 1012.8 0.0
16/01:30am 11.4 9.6 1.4 50 4.3 CALM 0 0 0 0 1014.1 1013.2 0.0
16/01:00am 11.8 10.0 0.9 47 4.6 CALM 0 0 0 0 1014.2 1013.3 0.0
16/12:30am 12.2 10.3 0.6 45 4.9 CALM 0 0 0 0 1014.3 1013.4 0.0
16/12:00am 13.0 11.1 0.7 43 5.3 CALM 0 0 0 0 1014.2 1013.3 0.0
 
Date/Time
EST
Temp
°C
App
Temp
°C
Dew
Point
°C
Rel
Hum
%
Delta-T
°C
Wind Press
QNH
hPa
Press
MSL
hPa
Rain since
9am
mm
Dir  Spd
km/h
Gust
km/h
Spd
kts
Gust
kts
15/11:30pm 14.2 12.4 1.2 41 5.7 CALM 0 0 0 0 1014.4 1013.5 0.0
15/11:00pm 13.7 11.7 0.0 39 5.8 CALM 0 0 0 0 1014.4 1013.5 0.0
15/10:30pm 14.2 12.3 0.8 40 5.8 CALM 0 0 0 0 1014.4 1013.5 0.0
15/10:00pm 14.8 12.9 0.6 38 6.2 CALM 0 0 0 0 1014.4 1013.5 0.0
15/09:30pm 15.3 13.4 0.3 36 6.5 CALM 0 0 0 0 1014.3 1013.4 0.0
15/09:00pm 16.1 13.7 -0.2 33 7.1 NNW 2 6 1 3 1014.3 1013.4 0.0
15/08:30pm 16.9 13.9 0.5 33 7.3 NNW 6 7 3 4 1014.1 1013.2 0.0
15/08:00pm 17.7 14.5 -0.5 29 7.9 NNW 6 7 3 4 1013.8 1012.8 0.0
15/07:30pm 19.1 15.7 -0.8 26 8.7 NNE 7 9 4 5 1013.4 1012.4 0.0
15/07:00pm 22.3 18.1 -1.1 21 10.5 NE 11 11 6 6 1013.2 1012.2 0.0
15/06:30pm 27.2 23.2 0.8 18 12.7 NE 11 13 6 7 1013.1 1012.1 0.0
15/06:00pm 29.9 25.5 0.5 15 14.4 NE 13 15 7 8 1012.9 1011.9 0.0
15/05:30pm 30.9 26.9 0.3 14 15.0 ENE 11 15 6 8 1012.8 1011.8 0.0
15/05:00pm 31.3 27.3 0.6 14 15.2 ENE 11 17 6 9 1012.8 1011.8 0.0
15/04:30pm 31.3 28.1 0.6 14 15.2 ENE 7 17 4 9 1012.7 1011.7 0.0
15/04:00pm 31.4 27.8 0.7 14 15.2 ENE 9 15 5 8 1012.8 1011.8 0.0
15/03:30pm 31.8 27.5 1.0 14 15.4 ESE 13 20 7 11 1013.0 1012.0 0.0
15/03:00pm 31.5 27.7 1.8 15 15.0 NNW 11 20 6 11 1013.4 1012.4 0.0
15/02:30pm 31.3 26.6 0.6 14 15.2 NE 15 24 8 13 1013.8 1012.8 0.0
15/02:00pm 31.2 25.8 1.5 15 14.9 NNE 19 30 10 16 1014.2 1013.3 0.0
15/01:30pm 30.5 25.3 2.7 17 14.2 NNE 19 28 10 15 1014.8 1013.8 0.0
15/01:00pm 30.6 25.5 2.8 17 14.2 NNE 19 26 10 14 1015.3 1014.3 0.0
15/12:30pm 29.3 24.8 4.0 20 13.1 NNE 17 22 9 12 1016.0 1015.0 0.0
15/12:00pm 29.0 24.2 4.5 21 12.7 NNE 19 28 10 15 1016.5 1015.5 0.0
15/11:30am 28.9 23.6 5.1 22 12.5 NE 22 32 12 17 1017.0 1016.1 0.0
15/11:00am 27.9 23.0 4.9 23 12.0 NE 20 30 11 16 1017.6 1016.7 0.0
15/10:30am 26.9 21.2 2.7 21 12.1 NE 22 30 12 16 1018.1 1017.1 0.0
15/10:00am 26.0 20.7 2.0 21 11.7 ENE 19 28 10 15 1018.3 1017.3 0.0
15/09:30am 23.7 19.6 2.0 24 10.4 ENE 13 28 7 15 1018.3 1017.3 0.0
15/09:00am 21.8 20.0 1.5 26 9.5 CALM 0 0 0 0 1018.2 1017.2 0.0
15/08:30am 17.2 15.3 0.4 32 7.4 CALM 0 0 0 0 1018.1 1017.1 0.0
15/08:00am 12.7 10.7 -0.2 41 5.4 CALM 0 0 0 0 1017.9 1016.9 0.0
15/07:30am 7.7 5.7 -0.3 57 3.2 CALM 0 0 0 0 1017.8 1016.8 0.0
15/07:00am 6.7 4.6 -0.7 59 2.9 CALM 0 0 0 0 1017.5 1016.6 0.0
15/06:30am 7.0 4.9 -0.9 57 3.1 CALM 0 0 0 0 1017.1 1016.2 0.0
15/06:00am 7.3 5.2 -0.6 57 3.1 CALM 0 0 0 0 1016.9 1016.0 0.0
15/05:30am 7.4 5.3 -0.8 56 3.2 CALM 0 0 0 0 1016.5 1015.5 0.0
15/05:00am 7.6 5.5 -1.1 54 3.4 CALM 0 0 0 0 1016.3 1015.3 0.0
15/04:30am 8.1 5.9 -1.4 51 3.7 CALM 0 0 0 0 1016.1 1015.1 0.0
15/04:00am 8.6 6.4 -1.5 49 3.9 CALM 0 0 0 0 1016.1 1015.1 0.0
15/03:30am 8.9 6.7 -1.5 48 4.1 CALM 0 0 0 0 1016.2 1015.2 0.0
15/03:00am 9.3 7.1 -1.7 46 4.3 CALM 0 0 0 0 1016.3 1015.3 0.0
15/02:30am 10.2 8.2 -0.3 48 4.3 CALM 0 0 0 0 1016.4 1015.4 0.0
15/02:00am 10.3 7.0 -1.4 44 4.7 SSW 6 7 3 4 1016.4 1015.4 0.0
15/01:30am 11.3 7.6 -0.2 45 4.8 SW 9 11 5 6 1016.5 1015.5 0.0
15/01:00am 10.2 7.2 -1.8 43 4.7 SSW 4 7 2 4 1016.7 1015.8 0.0
15/12:30am 11.0 8.9 -1.1 43 4.9 CALM 0 0 0 0 1016.8 1015.9 0.0
15/12:00am 11.3 8.0 -1.5 41 5.1 S 6 7 3 4 1017.0 1016.1 0.0
 
Date/Time
EST
Temp
°C
App
Temp
°C
Dew
Point
°C
Rel
Hum
%
Delta-T
°C
Wind Press
QNH
hPa
Press
MSL
hPa
Rain since
9am
mm
Dir  Spd
km/h
Gust
km/h
Spd
kts
Gust
kts
14/11:30pm 11.9 8.5 -0.9 41 5.2 S 7 7 4 4 1017.1 1016.2 0.0
14/11:00pm 11.8 9.5 -2.0 38 5.5 CALM 0 0 0 0 1017.4 1016.5 0.0
14/10:30pm 12.3 10.0 -2.3 36 5.8 CALM 0 0 0 0 1017.8 1016.8 0.0
14/10:00pm 12.8 10.5 -2.6 34 6.1 CALM 0 0 0 0 1017.8 1016.8 0.0
14/09:30pm 13.6 11.3 -2.3 33 6.4 CALM 0 0 0 0 1017.8 1016.8 0.0
14/09:00pm 14.4 12.1 -2.5 31 6.8 CALM 0 0 0 0 1017.8 1016.8 0.0
14/08:30pm 15.5 13.2 -2.0 30 7.3 CALM 0 0 0 0 1017.4 1016.5 0.0
14/08:00pm 16.7 14.4 -2.4 27 7.9 CALM 0 0 0 0 1017.1 1016.2 0.0
14/07:30pm 18.4 15.3 -2.5 24 8.8 E 4 7 2 4 1017.0 1016.1 0.0
14/07:00pm 21.8 18.1 -2.8 19 10.6 E 7 9 4 5 1016.8 1015.9 0.0
14/06:30pm 26.7 22.3 -2.1 15 13.1 E 11 15 6 8 1016.6 1015.7 0.0
14/06:00pm 29.0 25.1 -1.2 14 14.2 E 9 15 5 8 1016.5 1015.5 0.0
14/05:30pm 30.0 25.4 -1.4 13 14.9 ESE 13 19 7 10 1016.3 1015.3 0.0
14/05:00pm 30.5 25.5 -1.0 13 15.1 ESE 15 20 8 11 1016.2 1015.2 0.0
14/04:30pm 30.8 27.4 -0.8 13 15.2 ENE 7 13 4 7 1016.1 1015.1 0.0
14/04:00pm 30.7 26.1 -0.8 13 15.1 ESE 13 26 7 14 1016.2 1015.2 0.0
14/03:30pm 31.0 26.8 -0.6 13 15.3 SE 11 22 6 12 1016.4 1015.4 0.0
14/03:00pm 31.1 25.8 -0.5 13 15.3 ESE 17 26 9 14 1016.7 1015.8 0.0
14/02:30pm 30.5 25.1 -1.0 13 15.1 ESE 17 24 9 13 1017.1 1016.2 0.0
14/02:00pm 30.2 25.2 -1.2 13 14.9 ENE 15 20 8 11 1017.5 1016.6 0.0
14/01:30pm 30.5 25.9 -1.0 13 15.1 E 13 22 7 12 1018.2 1017.2 0.0
14/01:00pm 30.0 24.3 -0.4 14 14.6 E 19 30 10 16 1018.8 1017.8 0.0
14/12:30pm 30.0 24.2 -0.4 14 14.6 ENE 20 32 11 17 1019.3 1018.4 0.0
14/12:00pm 29.8 23.6 -0.5 14 14.5 NE 22 33 12 18 1019.6 1018.7 0.0
14/11:30am 29.1 22.8 -1.1 14 14.3 NNE 22 30 12 16 1020.1 1019.2 0.0
14/11:00am 28.2 22.5 -0.9 15 13.7 NNE 19 26 10 14 1020.4 1019.5 0.0
14/10:30am 27.6 21.6 -1.3 15 13.5 NNE 20 28 11 15 1020.7 1019.8 0.0
14/10:00am 26.4 21.2 0.2 18 12.4 NE 17 26 9 14 1020.9 1019.9 0.0
14/09:30am 25.4 21.7 0.1 19 11.9 NE 9 15 5 8 1020.7 1019.8 0.0
14/09:00am 23.0 20.7 2.5 26 9.9 E 4 9 2 5 1020.6 1019.7 0.0
14/08:30am 18.2 16.4 1.3 32 7.7 CALM 0 0 0 0 1020.5 1019.6 0.0
14/08:00am 13.3 11.1 1.3 44 5.2 N 2 7 1 4 1020.3 1019.4 0.0

Other Formats:

Comma delimited format used in spreadsheet applications
http://www.bom.gov.au/fwo/IDQ60801/IDQ60801.94332.axf

JavaScript Object Notation format (JSON) in row-major order
http://www.bom.gov.au/fwo/IDQ60801/IDQ60801.94332.json